Meadows, Idaho
Current Conditions -  °F | °C
As of 1:51 PM on Monday 24 Nov 2014 (Local Time) from KMYL Reporting Station
Clear Clear  
Wind Chill: 29°   Ceiling: Unl
Heat Index: 29°   Visibility: 10mi
Dew Point: 24°   Wind: 0mph
Humidity: 82%   Direction: NA
Pressure: 30.35"   Gusts: NA
Location:  45.015°N, 116.326°W
Report Text: KMYL 242051Z AUTO 00000KT 10SM CLR M02/M04 A3035 RMK AO2 SLP322 T10171044 58004
Loading
Personal Weather Stations






























Interactive Weather Map New forecast layout! Learn more

10-Day Weather Forecast

Advertisements
Track Severe Weather on mobile